Time;durP1;ratioP1;P1;durP2;ratioP2;P2;SDS_P1;SDS_P2;PMS_P1;PMS_P2;Temp;Humidity;BMP_temperature;BMP_pressure;BME280_temperature;BME280_humidity;BME280_pressure;Samples;Min_cycle;Max_cycle;Signal;HPM_P1;HPM_P2
2023/01/20 00:01:41;;;;;;;8.85;5.78;;;;;;;;;;5035290;28;20022;-64
2023/01/20 00:04:07;;;;;;;;;;;;;;;;;;5039828;28;20025;-63
2023/01/20 00:06:33;;;;;;;8.38;5.35;;;;;;;;;;5055142;28;19919;-64
2023/01/20 00:09:01;;;;;;;11.32;6.07;;;;;;;;;;5055055;28;20051;-65
2023/01/20 00:11:28;;;;;;;9.43;5.60;;;;;;;;;;5055138;28;20025;-65
2023/01/20 00:13:59;;;;;;;12.55;5.82;;;;;;;;;;5049568;28;20354;-64
2023/01/20 00:16:25;;;;;;;10.93;5.75;;;;;;;;;;5049886;28;20079;-63
2023/01/20 00:18:50;;;;;;;9.77;6.25;;;;;;;;;;5043314;28;20108;-63
2023/01/20 00:21:16;;;;;;;7.95;5.20;;;;;;;;;;5043840;28;20108;-63
2023/01/20 00:23:42;;;;;;;11.90;6.20;;;;;;;;;;5044948;28;20036;-64
2023/01/20 00:26:10;;;;;;;10.90;5.93;;;;;;;;;;5042907;28;20025;-64
2023/01/20 00:28:36;;;;;;;8.10;5.32;;;;;;;;;;5042590;28;20034;-63
2023/01/20 00:31:12;;;;;;;9.68;5.70;;;;;;;;;;5043245;28;20033;-64
2023/01/20 00:33:38;;;;;;;9.13;5.40;;;;;;;;;;5041177;28;20358;-64
2023/01/20 00:36:04;;;;;;;8.82;5.47;;;;;;;;;;5044041;28;20260;-64
2023/01/20 00:38:29;;;;;;;9.15;6.07;;;;;;;;;;5042952;28;20021;-64
2023/01/20 00:40:55;;;;;;;8.52;5.32;;;;;;;;;;5043698;28;20022;-64
2023/01/20 00:43:21;;;;;;;9.55;5.55;;;;;;;;;;5043098;28;20469;-64
2023/01/20 00:45:46;;;;;;;8.95;5.60;;;;;;;;;;5043758;28;20389;-64
2023/01/20 00:48:12;;;;;;;9.25;6.20;;;;;;;;;;5044018;28;20026;-64
2023/01/20 00:50:37;;;;;;;8.57;5.57;;;;;;;;;;5043037;28;20045;-64
2023/01/20 00:53:03;;;;;;;7.95;5.10;;;;;;;;;;5043069;28;20035;-64
2023/01/20 00:55:29;;;;;;;9.05;5.10;;;;;;;;;;5035838;28;20029;-64
2023/01/20 00:57:54;;;;;;;9.20;5.35;;;;;;;;;;5032908;28;20424;-64
2023/01/20 01:00:20;;;;;;;7.45;5.25;;;;;;;;;;5034228;28;20079;-64
2023/01/20 01:02:45;;;;;;;8.70;5.47;;;;;;;;;;5033524;28;20029;-64
2023/01/20 01:05:11;;;;;;;9.32;5.45;;;;;;;;;;5033253;28;20017;-64
2023/01/20 01:07:36;;;;;;;10.40;5.65;;;;;;;;;;5034504;28;20032;-64
2023/01/20 01:10:02;;;;;;;8.93;5.57;;;;;;;;;;5033982;28;20517;-64
2023/01/20 01:12:27;;;;;;;11.60;5.75;;;;;;;;;;5033232;28;20033;-64
2023/01/20 01:14:53;;;;;;;9.32;6.20;;;;;;;;;;5033895;28;20030;-63
2023/01/20 01:17:18;;;;;;;9.43;5.30;;;;;;;;;;5034266;28;20021;-63
2023/01/20 01:19:44;;;;;;;8.75;5.85;;;;;;;;;;5033918;28;20025;-63
2023/01/20 01:22:09;;;;;;;11.00;6.10;;;;;;;;;;5034204;28;20026;-63
2023/01/20 01:24:35;;;;;;;8.50;5.60;;;;;;;;;;5033801;28;20389;-63
2023/01/20 01:27:00;;;;;;;8.88;5.40;;;;;;;;;;5033757;28;20033;-63
2023/01/20 01:29:26;;;;;;;9.02;5.47;;;;;;;;;;5034019;28;20045;-63
2023/01/20 01:31:51;;;;;;;10.20;5.07;;;;;;;;;;5033721;28;20386;-63
2023/01/20 01:34:17;;;;;;;8.15;4.93;;;;;;;;;;5033499;28;20120;-63
2023/01/20 01:36:42;;;;;;;8.80;5.50;;;;;;;;;;5033637;28;20079;-63
2023/01/20 01:39:08;;;;;;;11.40;6.25;;;;;;;;;;5033485;28;20029;-63
2023/01/20 01:41:33;;;;;;;9.93;5.53;;;;;;;;;;5033464;28;20033;-63
2023/01/20 01:44:02;;;;;;;8.05;5.25;;;;;;;;;;5033335;28;20031;-63
2023/01/20 01:46:27;;;;;;;9.80;5.38;;;;;;;;;;5033523;28;20025;-64
2023/01/20 01:48:53;;;;;;;7.75;5.40;;;;;;;;;;5033400;28;20026;-63
2023/01/20 01:51:24;;;;;;;10.45;5.57;;;;;;;;;;5033432;28;20112;-63
2023/01/20 01:53:56;;;;;;;6.40;5.00;;;;;;;;;;5033370;28;20030;-63
2023/01/20 01:56:24;;;;;;;9.30;5.35;;;;;;;;;;5033295;28;20044;-63
2023/01/20 01:58:55;;;;;;;8.88;5.10;;;;;;;;;;5033150;28;20448;-63
2023/01/20 02:01:20;;;;;;;;;;;;;;;;;;5034002;28;20118;-63
2023/01/20 02:03:59;;;;;;;10.98;5.85;;;;;;;;;;5033366;28;19970;-63
2023/01/20 02:06:30;;;;;;;8.07;5.00;;;;;;;;;;5033234;28;20540;-63
2023/01/20 02:08:56;;;;;;;10.93;5.60;;;;;;;;;;5032815;28;20052;-63
2023/01/20 02:11:22;;;;;;;10.07;5.45;;;;;;;;;;5033034;28;20029;-63
2023/01/20 02:13:48;;;;;;;7.35;5.22;;;;;;;;;;5033181;28;20056;-63
2023/01/20 02:16:17;;;;;;;8.70;5.40;;;;;;;;;;5032908;28;20499;-64
2023/01/20 02:19:20;;;;;;;7.40;5.30;;;;;;;;;;5032960;28;20029;-63
2023/01/20 02:21:55;;;;;;;7.20;5.03;;;;;;;;;;4982359;28;20044;-63
2023/01/20 02:24:42;;;;;;;8.57;5.15;;;;;;;;;;5032848;28;20053;-64
2023/01/20 02:27:13;;;;;;;8.23;4.93;;;;;;;;;;5033029;28;20432;-63
2023/01/20 02:29:57;;;;;;;7.65;5.32;;;;;;;;;;5033065;28;20037;-63
2023/01/20 02:32:44;;;;;;;7.40;5.13;;;;;;;;;;5032643;28;20033;-63
2023/01/20 02:35:18;;;;;;;8.40;5.20;;;;;;;;;;5032739;28;20363;-63
2023/01/20 02:38:02;;;;;;;9.18;4.82;;;;;;;;;;5032654;28;20035;-63
2023/01/20 02:40:54;;;;;;;8.43;5.18;;;;;;;;;;5032653;28;20049;-64
2023/01/20 02:43:27;;;;;;;8.02;4.80;;;;;;;;;;5032795;28;20074;-63
2023/01/20 02:46:11;;;;;;;8.23;4.82;;;;;;;;;;5032477;28;20079;-63
2023/01/20 02:48:43;;;;;;;8.88;5.20;;;;;;;;;;5032496;28;20025;-64
2023/01/20 02:51:11;;;;;;;9.68;4.95;;;;;;;;;;5031923;28;20033;-64
2023/01/20 02:53:52;;;;;;;7.28;5.05;;;;;;;;;;5032317;28;20448;-64
2023/01/20 02:56:21;;;;;;;7.82;4.88;;;;;;;;;;5032270;28;20034;-63
2023/01/20 02:58:51;;;;;;;5.70;4.50;;;;;;;;;;5032619;28;20025;-64
2023/01/20 03:01:27;;;;;;;6.78;4.68;;;;;;;;;;5032509;28;20021;-64
2023/01/20 03:03:56;;;;;;;9.07;4.93;;;;;;;;;;5032371;28;20375;-63
2023/01/20 03:06:25;;;;;;;9.38;5.03;;;;;;;;;;5032277;28;20025;-63
2023/01/20 03:08:54;;;;;;;7.38;5.47;;;;;;;;;;5032106;28;20130;-63
2023/01/20 03:11:19;;;;;;;6.75;5.30;;;;;;;;;;5032329;28;20021;-63
2023/01/20 03:13:58;;;;;;;6.40;4.60;;;;;;;;;;5032463;28;20472;-63
2023/01/20 03:16:25;;;;;;;7.22;4.80;;;;;;;;;;5032377;28;20492;-63
2023/01/20 03:18:51;;;;;;;7.47;5.05;;;;;;;;;;5032463;28;20031;-63
2023/01/20 03:21:17;;;;;;;7.80;5.13;;;;;;;;;;5032162;28;20376;-64
2023/01/20 03:23:47;;;;;;;7.10;4.97;;;;;;;;;;5032193;28;20036;-63
2023/01/20 03:26:15;;;;;;;7.13;4.60;;;;;;;;;;5032324;28;20428;-63
2023/01/20 03:28:43;;;;;;;8.75;5.07;;;;;;;;;;5032337;28;20035;-64
2023/01/20 03:31:17;;;;;;;9.07;5.40;;;;;;;;;;5032281;28;20060;-63
2023/01/20 03:33:44;;;;;;;6.68;4.65;;;;;;;;;;5032147;28;20026;-63
2023/01/20 03:36:13;;;;;;;8.63;5.20;;;;;;;;;;5031915;28;20030;-63
2023/01/20 03:38:38;;;;;;;6.15;4.70;;;;;;;;;;5032051;28;20036;-64
2023/01/20 03:41:24;;;;;;;8.13;5.03;;;;;;;;;;5031941;28;20108;-64
2023/01/20 03:44:15;;;;;;;8.90;4.70;;;;;;;;;;5031968;28;20444;-64
2023/01/20 03:46:51;;;;;;;8.15;4.43;;;;;;;;;;5031997;28;20462;-64
2023/01/20 03:49:33;;;;;;;7.75;5.15;;;;;;;;;;5031910;28;20026;-64
2023/01/20 03:52:11;;;;;;;6.40;4.15;;;;;;;;;;5031958;28;20550;-64
2023/01/20 03:54:46;;;;;;;7.60;4.95;;;;;;;;;;5031743;28;20033;-63
2023/01/20 03:57:17;;;;;;;9.07;5.03;;;;;;;;;;5031838;28;20030;-64
2023/01/20 03:59:45;;;;;;;6.97;4.53;;;;;;;;;;5031859;28;20025;-64
2023/01/20 04:02:11;;;;;;;7.32;4.80;;;;;;;;;;5032020;28;20021;-64
2023/01/20 04:04:40;;;;;;;5.93;4.68;;;;;;;;;;5033777;28;20137;-63
2023/01/20 04:07:08;;;;;;;8.75;4.45;;;;;;;;;;5035657;28;20420;-63
2023/01/20 04:09:39;;;;;;;6.45;4.30;;;;;;;;;;5035129;28;20672;-64
2023/01/20 04:12:05;;;;;;;5.75;4.60;;;;;;;;;;5035190;28;20064;-64
2023/01/20 04:14:31;;;;;;;7.13;4.28;;;;;;;;;;5035112;28;20037;-63
2023/01/20 04:16:57;;;;;;;6.25;4.70;;;;;;;;;;5035144;28;20079;-63
2023/01/20 04:19:24;;;;;;;6.45;4.63;;;;;;;;;;5035015;28;20021;-63
2023/01/20 04:22:05;;;;;;;8.15;4.93;;;;;;;;;;5035129;28;20029;-63
2023/01/20 04:24:41;;;;;;;9.77;5.13;;;;;;;;;;5035253;28;20026;-63
2023/01/20 04:27:06;;;;;;;7.50;4.50;;;;;;;;;;5035009;28;20028;-63
2023/01/20 04:29:32;;;;;;;8.65;4.78;;;;;;;;;;5035020;28;20029;-63
2023/01/20 04:31:59;;;;;;;6.75;4.53;;;;;;;;;;5035136;28;20026;-63
2023/01/20 04:34:25;;;;;;;6.03;4.70;;;;;;;;;;5034749;28;20048;-64
2023/01/20 04:36:50;;;;;;;6.68;4.63;;;;;;;;;;5034778;28;20032;-63
2023/01/20 04:39:16;;;;;;;8.60;4.75;;;;;;;;;;5034853;28;20025;-63
2023/01/20 04:41:41;;;;;;;6.90;4.80;;;;;;;;;;5034808;28;20021;-64
2023/01/20 04:44:07;;;;;;;7.68;4.80;;;;;;;;;;5034628;28;20052;-64
2023/01/20 04:46:32;;;;;;;6.28;4.60;;;;;;;;;;5034594;28;20034;-64
2023/01/20 04:48:58;;;;;;;5.55;4.70;;;;;;;;;;5034593;28;20022;-63
2023/01/20 04:51:23;;;;;;;7.40;4.88;;;;;;;;;;5034810;28;20038;-63
2023/01/20 04:53:49;;;;;;;6.20;4.38;;;;;;;;;;5034573;28;20021;-63
2023/01/20 04:56:15;;;;;;;6.88;4.70;;;;;;;;;;5034316;28;20029;-63
2023/01/20 04:58:41;;;;;;;6.18;4.40;;;;;;;;;;5034387;28;20033;-63
2023/01/20 05:01:07;;;;;;;7.32;4.45;;;;;;;;;;5034383;28;20470;-63
2023/01/20 05:03:34;;;;;;;6.65;4.53;;;;;;;;;;5034570;28;20033;-63
2023/01/20 05:05:59;;;;;;;7.35;4.45;;;;;;;;;;5034296;28;20026;-63
2023/01/20 05:08:25;;;;;;;7.20;4.65;;;;;;;;;;5034191;28;20021;-63
2023/01/20 05:10:51;;;;;;;8.30;5.07;;;;;;;;;;5034029;28;20116;-63
2023/01/20 05:13:16;;;;;;;8.48;4.60;;;;;;;;;;5034116;28;20018;-63
2023/01/20 05:15:43;;;;;;;5.95;4.30;;;;;;;;;;5033896;28;20488;-64
2023/01/20 05:18:08;;;;;;;7.22;4.63;;;;;;;;;;5033912;28;20358;-63
2023/01/20 05:20:34;;;;;;;5.18;4.10;;;;;;;;;;5033852;28;20039;-64
2023/01/20 05:22:59;;;;;;;6.10;4.30;;;;;;;;;;5033934;28;20026;-64
2023/01/20 05:25:25;;;;;;;6.40;4.55;;;;;;;;;;5034138;28;20037;-64
2023/01/20 05:27:50;;;;;;;7.63;4.53;;;;;;;;;;5033834;28;20051;-64
2023/01/20 05:30:16;;;;;;;6.68;4.53;;;;;;;;;;5033815;28;20083;-63
2023/01/20 05:32:44;;;;;;;7.65;5.03;;;;;;;;;;5033761;28;20021;-64
2023/01/20 05:35:10;;;;;;;5.40;4.20;;;;;;;;;;5033478;28;20033;-65
2023/01/20 05:37:35;;;;;;;5.97;4.22;;;;;;;;;;5033589;28;20051;-63
2023/01/20 05:40:01;;;;;;;6.25;4.07;;;;;;;;;;5033745;28;20025;-64
2023/01/20 05:42:26;;;;;;;6.30;4.50;;;;;;;;;;5033478;28;20412;-64
2023/01/20 05:44:52;;;;;;;6.88;4.30;;;;;;;;;;5033664;28;20485;-64
2023/01/20 05:47:17;;;;;;;6.88;4.57;;;;;;;;;;5033408;28;20371;-64
2023/01/20 05:49:43;;;;;;;5.20;4.10;;;;;;;;;;5033175;28;20036;-63
2023/01/20 05:52:08;;;;;;;5.40;4.55;;;;;;;;;;5033590;28;20021;-63
2023/01/20 05:54:34;;;;;;;6.80;4.13;;;;;;;;;;5033335;28;20052;-63
2023/01/20 05:57:00;;;;;;;6.38;4.53;;;;;;;;;;5033557;28;20420;-64
2023/01/20 05:59:25;;;;;;;5.60;4.20;;;;;;;;;;5033089;28;20096;-63
2023/01/20 06:01:51;;;;;;;5.93;4.50;;;;;;;;;;5033189;28;20053;-64
2023/01/20 06:04:16;;;;;;;7.00;4.20;;;;;;;;;;5033127;28;20443;-64
2023/01/20 06:06:42;;;;;;;5.72;4.38;;;;;;;;;;5015613;28;20104;-63
2023/01/20 06:09:09;;;;;;;5.65;4.30;;;;;;;;;;5032836;28;20155;-63
2023/01/20 06:11:35;;;;;;;7.28;4.57;;;;;;;;;;5032951;28;20480;-63
2023/01/20 06:14:00;;;;;;;7.78;5.13;;;;;;;;;;5032917;28;20018;-63
2023/01/20 06:16:26;;;;;;;9.18;5.35;;;;;;;;;;5032756;28;20021;-65
2023/01/20 06:18:52;;;;;;;18.67;5.25;;;;;;;;;;5032978;28;20488;-64
2023/01/20 06:21:17;;;;;;;11.85;5.50;;;;;;;;;;5048214;28;20424;-63
2023/01/20 06:23:43;;;;;;;16.95;5.28;;;;;;;;;;5039040;28;20032;-63
2023/01/20 06:26:12;;;;;;;13.75;5.60;;;;;;;;;;5032055;28;20124;-63
2023/01/20 06:28:38;;;;;;;13.30;6.13;;;;;;;;;;5032778;28;20496;-63
2023/01/20 06:31:10;;;;;;;12.70;5.18;;;;;;;;;;5037642;28;20481;-64
2023/01/20 06:33:35;;;;;;;10.45;5.38;;;;;;;;;;5032481;28;20026;-64
2023/01/20 06:36:02;;;;;;;10.40;4.88;;;;;;;;;;5032555;28;20036;-63
2023/01/20 06:38:29;;;;;;;14.15;5.38;;;;;;;;;;5032336;28;20373;-65
2023/01/20 06:41:03;;;;;;;13.13;5.43;;;;;;;;;;5032093;28;20041;-65
2023/01/20 06:43:31;;;;;;;18.17;5.28;;;;;;;;;;5031234;28;20033;-64
2023/01/20 06:46:01;;;;;;;11.35;5.07;;;;;;;;;;5030682;28;20072;-64
2023/01/20 06:48:27;;;;;;;;;;;;;;;;;;5014178;28;20030;-64
2023/01/20 06:50:52;;;;;;;10.70;5.35;;;;;;;;;;5031915;28;19921;-62
2023/01/20 06:53:18;;;;;;;10.18;5.13;;;;;;;;;;5032129;28;20068;-62
2023/01/20 06:55:43;;;;;;;10.10;5.30;;;;;;;;;;5032094;28;20119;-64
2023/01/20 06:58:26;;;;;;;13.98;5.50;;;;;;;;;;4999158;28;20060;-64
2023/01/20 07:00:52;;;;;;;9.75;5.47;;;;;;;;;;5032256;28;20034;-64
2023/01/20 07:03:18;;;;;;;14.57;5.80;;;;;;;;;;5032259;28;20104;-65
2023/01/20 07:05:54;;;;;;;11.32;5.93;;;;;;;;;;5032325;28;20125;-65
2023/01/20 07:08:19;;;;;;;11.20;5.68;;;;;;;;;;5032240;28;20022;-64
2023/01/20 07:10:45;;;;;;;14.60;5.93;;;;;;;;;;5032062;28;20048;-63
2023/01/20 07:13:10;;;;;;;10.43;5.57;;;;;;;;;;5032069;28;20116;-63
2023/01/20 07:15:36;;;;;;;15.00;5.82;;;;;;;;;;5014492;28;20025;-63
2023/01/20 07:18:01;;;;;;;11.90;5.78;;;;;;;;;;5032326;28;20029;-62
2023/01/20 07:20:27;;;;;;;16.48;6.00;;;;;;;;;;5032160;28;20021;-63
2023/01/20 07:22:52;;;;;;;9.70;5.60;;;;;;;;;;5013506;28;20527;-64
2023/01/20 07:25:18;;;;;;;12.43;5.50;;;;;;;;;;5014468;28;20524;-64
2023/01/20 07:27:44;;;;;;;8.40;5.15;;;;;;;;;;5032270;28;20042;-63
2023/01/20 07:30:10;;;;;;;14.77;5.60;;;;;;;;;;5032187;28;20401;-64
2023/01/20 07:32:35;;;;;;;12.23;5.65;;;;;;;;;;5031887;28;20461;-64
2023/01/20 07:35:01;;;;;;;11.48;5.32;;;;;;;;;;5014218;28;20030;-64
2023/01/20 07:37:26;;;;;;;12.68;5.45;;;;;;;;;;5032307;28;20113;-63
2023/01/20 07:39:52;;;;;;;10.50;5.35;;;;;;;;;;5035790;28;20116;-63
2023/01/20 07:42:17;;;;;;;12.50;5.57;;;;;;;;;;5018048;28;20021;-64
2023/01/20 07:44:43;;;;;;;8.48;5.38;;;;;;;;;;5035808;28;20048;-64
2023/01/20 07:47:08;;;;;;;14.77;5.78;;;;;;;;;;5035644;28;20033;-63
2023/01/20 07:49:34;;;;;;;12.38;6.00;;;;;;;;;;5017928;28;20489;-63
2023/01/20 07:51:59;;;;;;;11.88;5.50;;;;;;;;;;5035566;28;20473;-63
2023/01/20 07:54:25;;;;;;;9.43;5.45;;;;;;;;;;5035551;28;20032;-63
2023/01/20 07:56:50;;;;;;;11.20;5.75;;;;;;;;;;5035663;28;20053;-63
2023/01/20 07:59:16;;;;;;;11.85;5.85;;;;;;;;;;5035593;28;20481;-63
2023/01/20 08:01:42;;;;;;;9.68;5.05;;;;;;;;;;5035516;28;20075;-62
2023/01/20 08:04:08;;;;;;;12.63;5.47;;;;;;;;;;5035664;28;20022;-63
2023/01/20 08:06:33;;;;;;;12.05;5.25;;;;;;;;;;5035337;28;20103;-62
2023/01/20 08:09:00;;;;;;;13.23;5.72;;;;;;;;;;5034832;28;20060;-63
2023/01/20 08:11:26;;;;;;;8.18;5.30;;;;;;;;;;5017547;28;20034;-63
2023/01/20 08:13:52;;;;;;;9.75;5.47;;;;;;;;;;5035247;28;20032;-62
2023/01/20 08:16:18;;;;;;;9.95;5.43;;;;;;;;;;5035144;28;20065;-61
2023/01/20 08:18:44;;;;;;;10.65;5.15;;;;;;;;;;5035413;28;20029;-62
2023/01/20 08:21:21;;;;;;;10.90;5.70;;;;;;;;;;5039098;28;20350;-62
2023/01/20 08:23:47;;;;;;;10.63;5.70;;;;;;;;;;5040090;28;20436;-63
2023/01/20 08:26:13;;;;;;;10.45;5.45;;;;;;;;;;5040947;28;20124;-63
2023/01/20 08:28:38;;;;;;;9.07;5.32;;;;;;;;;;5045637;28;20032;-64
2023/01/20 08:31:09;;;;;;;7.40;5.03;;;;;;;;;;5039197;28;20096;-63
2023/01/20 08:33:35;;;;;;;10.75;5.38;;;;;;;;;;5042951;28;20021;-65
2023/01/20 08:36:07;;;;;;;7.28;4.85;;;;;;;;;;5043895;28;20025;-63
2023/01/20 08:38:33;;;;;;;10.05;5.20;;;;;;;;;;5043570;28;20018;-64
2023/01/20 08:40:59;;;;;;;12.73;5.97;;;;;;;;;;5042282;28;20028;-63
2023/01/20 08:43:24;;;;;;;12.02;5.60;;;;;;;;;;5028622;28;20033;-64
2023/01/20 08:46:06;;;;;;;8.88;5.40;;;;;;;;;;5016888;28;20461;-64
2023/01/20 08:48:33;;;;;;;12.38;5.53;;;;;;;;;;5034689;28;20025;-62
2023/01/20 08:50:58;;;;;;;10.40;5.30;;;;;;;;;;5016029;28;20021;-62
2023/01/20 08:53:25;;;;;;;10.63;5.72;;;;;;;;;;5016695;28;20025;-66
2023/01/20 08:55:55;;;;;;;9.68;5.70;;;;;;;;;;5016552;28;20025;-63
2023/01/20 08:58:21;;;;;;;11.50;5.40;;;;;;;;;;5034317;28;20547;-63
2023/01/20 09:00:46;;;;;;;6.90;4.80;;;;;;;;;;5034426;28;20025;-63
2023/01/20 09:03:12;;;;;;;10.68;5.47;;;;;;;;;;5034317;28;20573;-64
2023/01/20 09:05:38;;;;;;;10.80;5.32;;;;;;;;;;5034298;28;20071;-64
2023/01/20 09:08:03;;;;;;;7.57;5.07;;;;;;;;;;5034459;28;20021;-62
2023/01/20 09:10:32;;;;;;;8.80;5.05;;;;;;;;;;5034071;28;20375;-63
2023/01/20 09:12:57;;;;;;;9.15;5.78;;;;;;;;;;5034022;28;20021;-64
2023/01/20 09:15:23;;;;;;;9.90;5.45;;;;;;;;;;5034046;28;20034;-65
2023/01/20 09:17:48;;;;;;;12.07;5.55;;;;;;;;;;5016186;28;20026;-65
2023/01/20 09:20:14;;;;;;;8.73;5.30;;;;;;;;;;5033908;28;20030;-64
2023/01/20 09:22:40;;;;;;;8.70;5.32;;;;;;;;;;5034004;28;20043;-65
2023/01/20 09:25:07;;;;;;;9.77;5.13;;;;;;;;;;5034100;28;20028;-65
2023/01/20 09:27:33;;;;;;;11.93;5.40;;;;;;;;;;5016073;28;20029;-64
2023/01/20 09:29:58;;;;;;;9.65;5.35;;;;;;;;;;5033788;28;20025;-65
2023/01/20 09:32:24;;;;;;;9.80;5.43;;;;;;;;;;5033689;28;20096;-65
2023/01/20 09:34:49;;;;;;;9.70;5.25;;;;;;;;;;5033634;28;20052;-63
2023/01/20 09:46:35;;;;;;;8.18;5.20;;;;;;;;;;5032053;28;20032;-64
2023/01/20 09:55:59;;;;;;;8.82;5.07;;;;;;;;;;5032073;28;20163;-65
2023/01/20 09:58:45;;;;;;;7.32;5.05;;;;;;;;;;5000740;28;20408;-65
2023/01/20 10:01:34;;;;;;;7.68;5.55;;;;;;;;;;5030633;28;20022;-64
2023/01/20 10:04:10;;;;;;;7.65;4.93;;;;;;;;;;5031847;28;20022;-66
2023/01/20 10:06:41;;;;;;;10.32;5.03;;;;;;;;;;5013692;28;20473;-65
2023/01/20 10:09:24;;;;;;;8.80;5.30;;;;;;;;;;5030876;28;20057;-64
2023/01/20 10:11:58;;;;;;;9.02;5.38;;;;;;;;;;5031423;28;20034;-65
2023/01/20 10:14:47;;;;;;;10.77;5.53;;;;;;;;;;5031393;28;20042;-65
2023/01/20 10:17:51;;;;;;;9.68;5.43;;;;;;;;;;5031429;28;20021;-65
2023/01/20 10:20:36;;;;;;;10.02;5.35;;;;;;;;;;5048654;28;20403;-63
2023/01/20 10:23:04;;;;;;;8.63;4.82;;;;;;;;;;5071115;28;20676;-65
2023/01/20 10:25:51;;;;;;;7.13;5.13;;;;;;;;;;5071042;28;20573;-65
2023/01/20 10:28:40;;;;;;;9.95;5.97;;;;;;;;;;5070989;28;20477;-66
2023/01/20 10:31:06;;;;;;;8.32;5.25;;;;;;;;;;5070942;28;20016;-64
2023/01/20 10:33:38;;;;;;;9.07;5.13;;;;;;;;;;5070890;28;20422;-66
2023/01/20 10:36:13;;;;;;;6.90;5.00;;;;;;;;;;5070737;28;20209;-65
2023/01/20 10:38:45;;;;;;;9.40;5.03;;;;;;;;;;5052740;28;20036;-66
2023/01/20 10:41:19;;;;;;;9.70;5.20;;;;;;;;;;5052532;28;20028;-65
2023/01/20 10:43:46;;;;;;;8.10;5.10;;;;;;;;;;5052809;28;20502;-65
2023/01/20 10:46:21;;;;;;;8.55;5.57;;;;;;;;;;5070761;28;20479;-66
2023/01/20 10:49:25;;;;;;;9.50;5.07;;;;;;;;;;5070760;28;20082;-65
2023/01/20 10:52:19;;;;;;;9.80;5.85;;;;;;;;;;5070528;28;20488;-66
2023/01/20 10:54:56;;;;;;;9.43;5.28;;;;;;;;;;5052629;28;20043;-63
2023/01/20 10:57:22;;;;;;;7.38;4.80;;;;;;;;;;5070717;28;20029;-62
2023/01/20 10:59:56;;;;;;;8.52;5.50;;;;;;;;;;5070566;28;20032;-63
2023/01/20 11:02:30;;;;;;;7.80;5.20;;;;;;;;;;5070614;28;20024;-65
2023/01/20 11:04:58;;;;;;;8.00;5.53;;;;;;;;;;5052554;28;20083;-63
2023/01/20 11:07:25;;;;;;;7.60;5.38;;;;;;;;;;5070518;28;20036;-64
2023/01/20 11:09:51;;;;;;;7.47;5.47;;;;;;;;;;5070289;28;20127;-64
2023/01/20 11:12:31;;;;;;;8.23;5.50;;;;;;;;;;5052377;28;20453;-64
2023/01/20 11:14:59;;;;;;;7.90;5.37;;;;;;;;;;5056549;28;20468;-63
2023/01/20 11:17:25;;;;;;;7.30;4.97;;;;;;;;;;5056393;28;20257;-65
2023/01/20 11:20:05;;;;;;;7.22;4.93;;;;;;;;;;5074456;28;20051;-64
2023/01/20 11:22:34;;;;;;;8.32;4.90;;;;;;;;;;5074452;28;20029;-65
2023/01/20 11:25:02;;;;;;;8.80;5.95;;;;;;;;;;5041293;28;20485;-64
2023/01/20 11:27:41;;;;;;;8.82;5.18;;;;;;;;;;5017408;28;20029;-64
2023/01/20 11:30:31;;;;;;;8.80;5.13;;;;;;;;;;5017410;28;20033;-62
2023/01/20 11:33:08;;;;;;;10.52;5.60;;;;;;;;;;5034223;28;20030;-64
2023/01/20 11:35:33;;;;;;;8.48;5.43;;;;;;;;;;5034218;28;20049;-62
2023/01/20 11:38:22;;;;;;;7.00;5.05;;;;;;;;;;5034239;28;20393;-64
2023/01/20 11:40:53;;;;;;;7.18;4.93;;;;;;;;;;5016376;28;20763;-64
2023/01/20 11:43:34;;;;;;;;;;;;;;;;;;5017014;28;20026;-62
2023/01/20 11:46:24;;;;;;;9.25;5.30;;;;;;;;;;5034160;28;19986;-64
2023/01/20 11:49:13;;;;;;;11.45;5.95;;;;;;;;;;5016307;28;20030;-65
2023/01/20 11:51:47;;;;;;;7.60;5.07;;;;;;;;;;5034107;28;20029;-63
2023/01/20 11:54:29;;;;;;;9.60;5.47;;;;;;;;;;5034203;28;20025;-62
2023/01/20 11:57:00;;;;;;;8.57;5.43;;;;;;;;;;5033831;28;20087;-62
2023/01/20 11:59:31;;;;;;;8.77;5.47;;;;;;;;;;5033973;28;20029;-62
2023/01/20 12:02:03;;;;;;;10.50;5.65;;;;;;;;;;5015847;28;20175;-64
2023/01/20 12:04:51;;;;;;;8.18;5.28;;;;;;;;;;5034130;28;20037;-65
2023/01/20 12:07:46;;;;;;;8.18;4.88;;;;;;;;;;5036306;28;20037;-62
2023/01/20 12:10:33;;;;;;;7.75;4.97;;;;;;;;;;5032543;28;20060;-65
2023/01/20 12:13:10;;;;;;;10.82;5.15;;;;;;;;;;5033489;28;20029;-62
2023/01/20 12:15:41;;;;;;;7.53;5.07;;;;;;;;;;5033479;28;20033;-63
2023/01/20 12:18:21;;;;;;;8.30;5.30;;;;;;;;;;5033482;28;20036;-65
2023/01/20 12:21:23;;;;;;;8.25;5.20;;;;;;;;;;5033592;28;20021;-64
2023/01/20 12:24:15;;;;;;;6.13;4.82;;;;;;;;;;4980994;28;20033;-65
2023/01/20 12:26:40;;;;;;;8.80;5.18;;;;;;;;;;5033435;28;20037;-65
2023/01/20 12:29:26;;;;;;;8.02;5.25;;;;;;;;;;5015430;28;20038;-62
2023/01/20 12:31:53;;;;;;;7.78;5.75;;;;;;;;;;5033250;28;20115;-62
2023/01/20 12:34:29;;;;;;;6.93;5.40;;;;;;;;;;5033331;28;20026;-64
2023/01/20 12:37:37;;;;;;;10.02;5.68;;;;;;;;;;5033076;28;20021;-62
2023/01/20 12:40:37;;;;;;;8.93;6.07;;;;;;;;;;5033250;28;20026;-62
2023/01/20 12:43:20;;;;;;;10.75;5.78;;;;;;;;;;5033107;28;20029;-64
2023/01/20 12:46:10;;;;;;;10.60;6.85;;;;;;;;;;5033191;28;20770;-61
2023/01/20 12:49:01;;;;;;;11.70;7.55;;;;;;;;;;5033064;28;20033;-62
2023/01/20 12:51:32;;;;;;;12.00;7.05;;;;;;;;;;5032325;28;20037;-64
2023/01/20 12:54:39;;;;;;;14.35;8.27;;;;;;;;;;5032783;28;20033;-63
2023/01/20 12:57:36;;;;;;;12.07;6.97;;;;;;;;;;5032697;28;20033;-64
2023/01/20 13:00:17;;;;;;;13.02;7.82;;;;;;;;;;5025944;28;20038;-64
2023/01/20 13:03:01;;;;;;;11.23;7.60;;;;;;;;;;5032791;28;20120;-63
2023/01/20 13:05:41;;;;;;;14.48;8.35;;;;;;;;;;5032611;28;20026;-64
2023/01/20 13:08:13;;;;;;;;;;;;;;;;;;5033011;28;20025;-64
2023/01/20 13:10:49;;;;;;;11.57;7.82;;;;;;;;;;5032300;28;19924;-65
2023/01/20 13:13:24;;;;;;;13.93;7.97;;;;;;;;;;5020131;28;20057;-63
2023/01/20 13:15:59;;;;;;;13.23;7.97;;;;;;;;;;5037672;28;20116;-64
2023/01/20 13:18:52;;;;;;;17.48;8.35;;;;;;;;;;5034105;28;20037;-63
2023/01/20 13:21:19;;;;;;;13.00;8.05;;;;;;;;;;5032224;28;20128;-62
2023/01/20 13:23:47;;;;;;;13.10;8.10;;;;;;;;;;5032321;28;20026;-64
2023/01/20 13:26:13;;;;;;;13.75;7.80;;;;;;;;;;5032315;28;20502;-65
2023/01/20 13:28:49;;;;;;;13.88;8.55;;;;;;;;;;5032114;28;20037;-64
2023/01/20 13:31:30;;;;;;;14.25;8.77;;;;;;;;;;5035421;28;20492;-62
2023/01/20 13:34:21;;;;;;;12.95;8.02;;;;;;;;;;5040977;28;20056;-65
2023/01/20 13:37:20;;;;;;;13.80;8.43;;;;;;;;;;5032070;28;20374;-65
2023/01/20 13:39:46;;;;;;;12.65;8.60;;;;;;;;;;5039781;28;20040;-64
2023/01/20 13:42:27;;;;;;;15.55;8.52;;;;;;;;;;5051941;28;20039;-62
2023/01/20 13:45:11;;;;;;;14.43;8.63;;;;;;;;;;5051890;28;20043;-63
2023/01/20 13:48:21;;;;;;;12.07;7.80;;;;;;;;;;5051987;28;20083;-64
2023/01/20 13:50:49;;;;;;;14.70;8.32;;;;;;;;;;5051807;28;20036;-63
2023/01/20 13:53:17;;;;;;;14.75;8.32;;;;;;;;;;5051743;28;20033;-62
2023/01/20 13:55:42;;;;;;;14.57;8.35;;;;;;;;;;5051480;28;20037;-62
2023/01/20 13:58:31;;;;;;;15.65;8.30;;;;;;;;;;5051879;28;20393;-63
2023/01/20 14:01:00;;;;;;;16.45;8.85;;;;;;;;;;5065260;28;20033;-62
2023/01/20 14:03:30;;;;;;;16.35;8.30;;;;;;;;;;5048596;28;20389;-62
2023/01/20 14:06:05;;;;;;;13.37;9.37;;;;;;;;;;5051661;28;20159;-63
2023/01/20 14:08:40;;;;;;;15.65;9.40;;;;;;;;;;5051090;28;20123;-62
2023/01/20 14:11:20;;;;;;;13.73;8.88;;;;;;;;;;5048587;28;20087;-63
2023/01/20 14:13:56;;;;;;;;;;;;;;;;;;5051660;28;20032;-62
2023/01/20 14:16:34;;;;;;;14.38;8.57;;;;;;;;;;5051100;28;19913;-62
2023/01/20 14:19:22;;;;;;;14.48;9.32;;;;;;;;;;5049733;28;20354;-63
2023/01/20 14:21:54;;;;;;;15.55;8.77;;;;;;;;;;5018796;28;20069;-62
2023/01/20 14:24:33;;;;;;;12.93;8.68;;;;;;;;;;5034014;28;20025;-63
2023/01/20 14:27:23;;;;;;;14.57;9.10;;;;;;;;;;5041600;28;20116;-62
2023/01/20 14:29:50;;;;;;;;;;;;;;;;;;5031586;28;20034;-63
2023/01/20 14:32:32;;;;;;;12.43;8.60;;;;;;;;;;5031169;28;19931;-63
2023/01/20 14:34:59;;;;;;;14.63;9.13;;;;;;;;;;5032970;28;20037;-63
2023/01/20 14:37:36;;;;;;;13.63;9.05;;;;;;;;;;5030773;28;20084;-63
2023/01/20 14:40:10;;;;;;;13.07;9.02;;;;;;;;;;5030987;28;20033;-63
2023/01/20 14:42:37;;;;;;;11.68;8.80;;;;;;;;;;5042631;28;20120;-63
2023/01/20 14:45:18;;;;;;;15.15;9.45;;;;;;;;;;5050596;28;20108;-63
2023/01/20 14:47:43;;;;;;;12.55;9.00;;;;;;;;;;5050419;28;20086;-63
2023/01/20 14:50:13;;;;;;;13.70;9.30;;;;;;;;;;5046173;28;20358;-63
2023/01/20 14:52:39;;;;;;;14.52;10.32;;;;;;;;;;5050878;28;20017;-63
2023/01/20 14:55:05;;;;;;;17.27;9.18;;;;;;;;;;5033416;28;20500;-63
2023/01/20 14:57:42;;;;;;;13.27;9.13;;;;;;;;;;5030788;28;20401;-63
2023/01/20 15:00:21;;;;;;;13.65;9.15;;;;;;;;;;5030670;28;20022;-63
2023/01/20 15:02:53;;;;;;;14.52;9.48;;;;;;;;;;5030854;28;20115;-63
2023/01/20 15:05:30;;;;;;;13.65;8.98;;;;;;;;;;5030574;28;20064;-63
2023/01/20 15:08:11;;;;;;;13.32;9.40;;;;;;;;;;5012890;28;20068;-63
2023/01/20 15:10:37;;;;;;;13.77;8.98;;;;;;;;;;5030552;28;20081;-63
2023/01/20 15:13:03;;;;;;;15.68;9.13;;;;;;;;;;5017602;28;20030;-63
2023/01/20 15:15:32;;;;;;;14.88;9.25;;;;;;;;;;5031174;28;20025;-63
2023/01/20 15:18:18;;;;;;;15.48;9.55;;;;;;;;;;5030537;28;20038;-63
2023/01/20 15:20:47;;;;;;;12.40;8.77;;;;;;;;;;5048848;28;20136;-63
2023/01/20 15:23:30;;;;;;;12.85;8.48;;;;;;;;;;5042685;28;20041;-63